Time;durP1;ratioP1;P1;durP2;ratioP2;P2;SDS_P1;SDS_P2;PMS_P1;PMS_P2;Temp;Humidity;BMP_temperature;BMP_pressure;BME280_temperature;BME280_humidity;BME280_pressure;Samples;Min_cycle;Max_cycle;Signal;HPM_P1;HPM_P2
2021/07/21 00:00:13;;;;;;;9.17;8.27;;;;;;;14.53;87.49;98461.41;4985463;28;21814;-68
2021/07/21 00:02:41;;;;;;;9.80;8.80;;;;;;;14.46;88.36;98450.63;4985744;28;20213;-69
2021/07/21 00:05:12;;;;;;;8.87;7.97;;;;;;;14.33;89.00;98451.22;4985038;28;20256;-71
2021/07/21 00:07:41;;;;;;;8.87;8.13;;;;;;;14.25;89.56;98451.28;4986452;28;20880;-71
2021/07/21 00:10:12;;;;;;;8.97;8.27;;;;;;;14.21;90.12;98450.78;4986776;28;20212;-72
2021/07/21 00:15:26;;;;;;;10.27;8.40;;;;;;;14.33;90.48;98449.38;4985297;28;20741;-69
2021/07/21 00:18:00;;;;;;;9.87;8.80;;;;;;;14.43;89.93;98448.34;4990263;28;20225;-70
2021/07/21 00:20:31;;;;;;;10.20;8.93;;;;;;;14.27;90.69;98446.59;4982517;28;20210;-72
2021/07/21 00:23:00;;;;;;;10.43;9.43;;;;;;;14.28;91.67;98448.25;4983368;28;20209;-70
2021/07/21 00:25:28;;;;;;;11.07;8.70;;;;;;;14.41;89.94;98456.50;4984771;28;20240;-70
2021/07/21 00:27:57;;;;;;;10.13;8.93;;;;;;;14.32;90.65;98453.03;4980890;28;20300;-70
2021/07/21 00:30:25;;;;;;;10.13;8.70;;;;;;;14.30;90.65;98459.56;4985672;28;20197;-71
2021/07/21 00:32:54;;;;;;;9.13;8.27;;;;;;;14.04;92.11;98458.06;4983136;28;20206;-71
2021/07/21 00:35:23;;;;;;;11.73;8.87;;;;;;;13.94;92.84;98454.78;4979760;28;20733;-70
2021/07/21 00:37:51;;;;;;;10.20;9.30;;;;;;;13.72;95.81;98460.72;4985560;28;20423;-71
2021/07/21 00:40:21;;;;;;;10.27;9.03;;;;;;;13.62;95.89;98457.41;4984145;28;20296;-71
2021/07/21 00:42:49;;;;;;;10.97;8.37;;;;;;;13.51;98.10;98455.13;4983051;28;20700;-71
2021/07/21 00:45:17;;;;;;;9.10;8.30;;;;;;;13.36;98.98;98454.97;4985241;28;20235;-72
2021/07/21 00:47:45;;;;;;;10.10;9.10;;;;;;;13.29;99.43;98454.84;4984171;28;20225;-72
2021/07/21 00:50:14;;;;;;;9.23;8.47;;;;;;;13.20;100.00;98454.00;4985671;28;20197;-68
2021/07/21 00:52:43;;;;;;;9.73;8.93;;;;;;;13.11;100.00;98452.38;4982253;28;20217;-73
2021/07/21 00:55:12;;;;;;;9.30;8.43;;;;;;;13.06;100.00;98457.34;4984139;28;20236;-71
2021/07/21 00:57:43;;;;;;;12.67;9.37;;;;;;;12.94;100.00;98452.38;4985125;28;20468;-68
2021/07/21 01:00:13;;;;;;;10.10;9.10;;;;;;;12.86;100.00;98455.88;4984040;28;20654;-68
2021/07/21 01:02:41;;;;;;;8.93;8.13;;;;;;;12.79;100.00;98451.41;4984268;28;20217;-70
2021/07/21 01:05:12;;;;;;;10.30;9.30;;;;;;;12.73;100.00;98450.22;4984032;28;20263;-71
2021/07/21 01:07:41;;;;;;;9.83;8.83;;;;;;;12.68;100.00;98450.72;4981344;28;20219;-71
2021/07/21 01:10:11;;;;;;;10.70;9.80;;;;;;;12.64;100.00;98446.75;4987505;28;20209;-71
2021/07/21 01:12:44;;;;;;;9.80;8.90;;;;;;;12.58;100.00;98450.91;4986187;28;20213;-71
2021/07/21 01:15:15;;;;;;;10.63;9.63;;;;;;;12.63;100.00;98452.25;4982758;28;20225;-69
2021/07/21 01:17:46;;;;;;;10.00;9.17;;;;;;;12.77;100.00;98442.75;4981248;28;20221;-73
2021/07/21 01:21:05;;;;;;;9.30;8.47;;;;;;;12.81;100.00;98444.09;4984323;28;20216;-71
2021/07/21 01:23:46;;;;;;;10.60;9.60;;;;;;;12.76;100.00;98447.25;4985030;28;20225;-71
2021/07/21 01:26:17;;;;;;;10.50;9.60;;;;;;;12.75;100.00;98445.56;4983215;28;20252;-71
2021/07/21 01:28:48;;;;;;;10.20;9.37;;;;;;;12.79;100.00;98443.44;4982319;28;20216;-71
2021/07/21 01:31:20;;;;;;;10.73;9.63;;;;;;;12.78;100.00;98452.41;4982307;28;20221;-71
2021/07/21 01:33:48;;;;;;;9.10;8.17;;;;;;;12.76;100.00;98444.59;4982715;28;20236;-70
2021/07/21 01:36:21;;;;;;;9.70;8.90;;;;;;;12.67;100.00;98442.94;4979402;28;20211;-71
2021/07/21 01:38:52;;;;;;;10.60;9.50;;;;;;;12.53;100.00;98439.94;4987214;28;20233;-70
2021/07/21 01:41:22;;;;;;;11.20;10.10;;;;;;;12.39;100.00;98444.09;4982465;28;20797;-71
2021/07/21 01:43:56;;;;;;;10.80;9.70;;;;;;;12.30;100.00;98445.91;4982675;28;20237;-71
2021/07/21 01:46:25;;;;;;;10.73;9.73;;;;;;;12.26;100.00;98443.72;4984082;28;20956;-72
2021/07/21 01:48:55;;;;;;;12.50;9.73;;;;;;;12.22;100.00;98445.88;4983966;28;20205;-72
2021/07/21 01:51:25;;;;;;;11.40;10.30;;;;;;;12.12;100.00;98446.03;4984219;28;20213;-71
2021/07/21 01:53:54;;;;;;;10.73;9.80;;;;;;;12.07;100.00;98451.00;4981667;28;20316;-71
2021/07/21 01:56:23;;;;;;;11.43;10.40;;;;;;;11.99;100.00;98450.94;4981459;28;20214;-71
2021/07/21 01:58:53;;;;;;;11.93;10.90;;;;;;;11.90;100.00;98449.25;4982544;28;20226;-69
2021/07/21 02:01:21;;;;;;;11.20;9.80;;;;;;;11.86;100.00;98449.56;4980959;28;20209;-72
2021/07/21 02:03:50;;;;;;;12.33;11.13;;;;;;;11.79;100.00;98448.56;4980730;28;20552;-70
2021/07/21 02:06:18;;;;;;;10.97;10.03;;;;;;;11.83;100.00;98441.94;4982058;28;20205;-71
2021/07/21 02:08:47;;;;;;;12.93;11.37;;;;;;;12.09;100.00;98440.19;4981547;28;20206;-72
2021/07/21 02:11:15;;;;;;;10.43;9.43;;;;;;;12.29;100.00;98444.22;4982052;28;20210;-72
2021/07/21 02:13:43;;;;;;;10.87;9.83;;;;;;;12.33;100.00;98447.41;4983644;28;20230;-73
2021/07/21 02:16:14;;;;;;;11.63;10.47;;;;;;;12.41;100.00;98431.47;4983902;28;20261;-70
2021/07/21 02:18:42;;;;;;;11.37;10.37;;;;;;;12.49;100.00;98449.22;4981533;28;20229;-71
2021/07/21 02:21:10;;;;;;;11.07;10.07;;;;;;;12.55;100.00;98445.09;4980425;28;20666;-68
2021/07/21 02:23:38;;;;;;;11.47;9.97;;;;;;;12.20;100.00;98445.22;4981185;28;20427;-71
2021/07/21 02:26:07;;;;;;;12.60;9.90;;;;;;;12.22;100.00;98442.38;4981003;28;20221;-71
2021/07/21 02:28:35;;;;;;;10.47;9.37;;;;;;;12.31;100.00;98446.72;4982781;28;20216;-71
2021/07/21 02:31:10;;;;;;;10.80;9.70;;;;;;;12.26;100.00;98443.72;4981777;28;20304;-70
2021/07/21 02:33:45;;;;;;;10.90;9.57;;;;;;;12.26;100.00;98455.19;4980965;28;20713;-69
2021/07/21 02:36:14;;;;;;;10.77;9.77;;;;;;;12.27;100.00;98461.31;4982745;28;20514;-73
2021/07/21 02:38:42;;;;;;;10.90;9.80;;;;;;;12.10;100.00;98453.31;4980173;28;20519;-70
2021/07/21 02:41:10;;;;;;;11.73;10.63;;;;;;;12.09;100.00;98451.66;4983659;28;20210;-72
2021/07/21 02:43:38;;;;;;;11.23;10.23;;;;;;;11.88;100.00;98458.19;4983525;28;20241;-73
2021/07/21 02:46:07;;;;;;;10.83;9.83;;;;;;;11.90;100.00;98452.75;4982736;28;21115;-71
2021/07/21 02:48:35;;;;;;;10.57;9.67;;;;;;;11.75;100.00;98454.38;4978594;28;20285;-70
2021/07/21 02:51:11;;;;;;;11.10;10.10;;;;;;;11.86;100.00;98456.72;4986801;28;20747;-71
2021/07/21 02:53:40;;;;;;;11.23;10.23;;;;;;;11.96;100.00;98454.75;4981359;28;20237;-72
2021/07/21 02:56:11;;;;;;;10.40;9.43;;;;;;;12.05;100.00;98453.00;4983274;28;20217;-68
2021/07/21 02:58:42;;;;;;;10.87;9.97;;;;;;;12.15;100.00;98451.00;4984025;28;20217;-72
2021/07/21 03:01:12;;;;;;;12.40;10.77;;;;;;;12.08;100.00;98446.50;4981722;28;20202;-69
2021/07/21 03:03:43;;;;;;;11.37;10.10;;;;;;;12.01;100.00;98446.34;4983838;28;20229;-72
2021/07/21 03:06:14;;;;;;;11.13;10.13;;;;;;;11.83;100.00;98452.53;4981418;28;20216;-70
2021/07/21 03:08:52;;;;;;;10.40;9.43;;;;;;;11.67;100.00;98455.97;4981774;28;20221;-69
2021/07/21 03:11:23;;;;;;;10.87;9.73;;;;;;;11.59;100.00;98453.28;4982867;28;20225;-70
2021/07/21 03:13:53;;;;;;;10.93;9.77;;;;;;;11.64;100.00;98455.47;4979930;28;20279;-71
2021/07/21 03:16:24;;;;;;;10.87;9.77;;;;;;;11.65;100.00;98463.25;4983297;28;20210;-70
2021/07/21 03:18:53;;;;;;;11.17;10.03;;;;;;;11.61;100.00;98459.28;4981737;28;20682;-73
2021/07/21 03:21:23;;;;;;;11.53;10.50;;;;;;;11.58;100.00;98457.78;4980483;28;20197;-70
2021/07/21 03:23:52;;;;;;;11.63;10.43;;;;;;;11.48;100.00;98454.41;4980370;28;20775;-69
2021/07/21 03:26:21;;;;;;;10.90;9.77;;;;;;;11.57;100.00;98455.28;4982282;28;20209;-70
2021/07/21 03:28:52;;;;;;;13.17;9.67;;;;;;;11.73;100.00;98460.63;4984286;28;20208;-71
2021/07/21 03:31:20;;;;;;;11.80;10.60;;;;;;;11.81;100.00;98449.22;4983617;28;20216;-69
2021/07/21 03:33:59;;;;;;;12.43;10.77;;;;;;;11.68;100.00;98459.47;4980314;28;20234;-69
2021/07/21 03:36:29;;;;;;;11.60;10.50;;;;;;;11.57;100.00;98463.22;4980943;28;20208;-72
2021/07/21 03:38:58;;;;;;;11.40;10.37;;;;;;;11.69;100.00;98458.47;4976803;28;20198;-72
2021/07/21 03:41:27;;;;;;;11.73;10.60;;;;;;;11.68;100.00;98457.63;4982254;28;20624;-70
2021/07/21 03:43:55;;;;;;;11.70;9.90;;;;;;;11.61;100.00;98458.44;4980499;28;20234;-70
2021/07/21 03:46:23;;;;;;;11.83;10.47;;;;;;;11.62;100.00;98460.13;4979782;28;20221;-71
2021/07/21 03:48:52;;;;;;;11.40;10.30;;;;;;;11.66;100.00;98464.94;4982511;28;20205;-70
2021/07/21 03:51:20;;;;;;;11.47;10.33;;;;;;;11.67;100.00;98461.28;4978632;28;20229;-70
2021/07/21 03:53:50;;;;;;;11.57;10.57;;;;;;;11.80;100.00;98460.84;4980299;28;20230;-70
2021/07/21 03:56:19;;;;;;;10.50;9.57;;;;;;;11.70;100.00;98466.28;4984036;28;20241;-71
2021/07/21 03:58:47;;;;;;;11.30;10.23;;;;;;;11.71;100.00;98470.59;4982169;28;20209;-70
2021/07/21 04:01:15;;;;;;;11.63;10.63;;;;;;;11.77;100.00;98463.00;4983720;28;20221;-71
2021/07/21 04:03:43;;;;;;;11.17;9.87;;;;;;;11.64;100.00;98468.75;4985241;28;20238;-71
2021/07/21 04:06:12;;;;;;;10.47;9.47;;;;;;;11.52;100.00;98471.66;4982786;28;20205;-71
2021/07/21 04:08:43;;;;;;;10.10;9.20;;;;;;;11.57;100.00;98471.19;4983043;28;20213;-71
2021/07/21 04:11:13;;;;;;;11.43;10.43;;;;;;;11.56;100.00;98481.00;4985460;28;20209;-71
2021/07/21 04:13:41;;;;;;;10.83;9.87;;;;;;;11.46;100.00;98474.94;4986782;28;20233;-71
2021/07/21 04:16:12;;;;;;;10.40;9.50;;;;;;;11.44;100.00;98479.59;4987519;28;20213;-70
2021/07/21 04:18:40;;;;;;;11.00;10.00;;;;;;;11.50;100.00;98486.09;4985454;28;20248;-69
2021/07/21 04:21:09;;;;;;;10.27;9.37;;;;;;;11.64;100.00;98482.03;4985066;28;20225;-70
2021/07/21 04:23:39;;;;;;;11.60;10.47;;;;;;;11.57;100.00;98477.34;4985453;28;20899;-70
2021/07/21 04:26:10;;;;;;;11.13;10.13;;;;;;;11.59;100.00;98493.09;4983924;28;20234;-72
2021/07/21 04:28:40;;;;;;;10.77;9.83;;;;;;;11.58;100.00;98500.25;4985032;28;20210;-71
2021/07/21 04:31:08;;;;;;;11.33;10.33;;;;;;;11.62;100.00;98502.59;4985469;28;20223;-70
2021/07/21 04:33:37;;;;;;;10.83;9.73;;;;;;;11.72;100.00;98500.63;4978520;28;20256;-71
2021/07/21 04:36:05;;;;;;;13.97;10.93;;;;;;;12.13;100.00;98497.34;4982643;28;20217;-71
2021/07/21 04:38:33;;;;;;;11.10;9.97;;;;;;;12.09;100.00;98506.59;4985545;28;20198;-71
2021/07/21 04:41:01;;;;;;;11.23;10.13;;;;;;;12.20;100.00;98509.00;4981788;28;20217;-71
2021/07/21 04:43:30;;;;;;;12.80;10.67;;;;;;;12.19;100.00;98506.47;4985465;28;20243;-71
2021/07/21 04:46:00;;;;;;;11.90;10.80;;;;;;;12.22;100.00;98511.47;4983330;28;20205;-72
2021/07/21 04:48:29;;;;;;;10.90;9.80;;;;;;;12.40;100.00;98514.00;4983955;28;20543;-73
2021/07/21 04:50:57;;;;;;;10.27;9.40;;;;;;;12.54;100.00;98516.03;4984002;28;20206;-71
2021/07/21 04:53:25;;;;;;;10.70;9.73;;;;;;;12.66;100.00;98507.75;4981554;28;20230;-70
2021/07/21 04:55:53;;;;;;;10.97;10.07;;;;;;;12.73;100.00;98514.91;4986805;28;20198;-71
2021/07/21 04:58:21;;;;;;;12.00;10.80;;;;;;;12.95;100.00;98523.19;4982855;28;20305;-71
2021/07/21 05:00:56;;;;;;;10.90;9.80;;;;;;;12.89;100.00;98510.56;4981979;28;20321;-69
2021/07/21 05:03:25;;;;;;;10.77;9.70;;;;;;;12.83;100.00;98520.03;4981779;28;20229;-70
2021/07/21 05:05:54;;;;;;;11.70;10.60;;;;;;;12.86;100.00;98524.22;4984404;28;20214;-69
2021/07/21 05:08:22;;;;;;;11.17;9.77;;;;;;;12.79;100.00;98523.22;4983786;28;20210;-70
2021/07/21 05:10:50;;;;;;;11.37;10.17;;;;;;;12.83;100.00;98532.53;4983331;28;20218;-71
2021/07/21 05:13:19;;;;;;;11.50;10.40;;;;;;;12.94;100.00;98526.03;4980964;28;20210;-73
2021/07/21 05:15:48;;;;;;;11.30;10.23;;;;;;;13.05;100.00;98530.19;4982867;28;20675;-72
2021/07/21 05:18:16;;;;;;;13.90;10.30;;;;;;;13.09;100.00;98523.56;4982043;28;20225;-71
2021/07/21 05:20:46;;;;;;;11.57;10.40;;;;;;;12.97;100.00;98526.53;4980810;28;20252;-72
2021/07/21 05:23:14;;;;;;;11.47;10.33;;;;;;;13.01;100.00;98527.03;4980748;28;20205;-72
2021/07/21 05:25:42;;;;;;;11.87;10.50;;;;;;;12.98;100.00;98530.03;4982130;28;20205;-71
2021/07/21 05:28:10;;;;;;;15.10;11.70;;;;;;;13.23;99.90;98536.19;4983781;28;20201;-70
2021/07/21 05:30:38;;;;;;;11.47;10.27;;;;;;;13.29;99.21;98540.00;4984255;28;20228;-71
2021/07/21 05:33:06;;;;;;;12.20;10.40;;;;;;;13.30;99.38;98542.47;4982802;28;20209;-72
2021/07/21 05:35:34;;;;;;;13.83;10.70;;;;;;;13.41;98.58;98543.13;4982400;28;20220;-71
2021/07/21 05:38:04;;;;;;;11.70;10.70;;;;;;;13.42;97.54;98545.66;4983113;28;20209;-71
2021/07/21 05:40:32;;;;;;;11.47;10.40;;;;;;;13.40;99.57;98547.63;4982420;28;20234;-72
2021/07/21 05:43:00;;;;;;;11.20;10.03;;;;;;;13.59;97.73;98541.13;4984526;28;20236;-70
2021/07/21 05:45:28;;;;;;;12.03;10.43;;;;;;;13.61;97.30;98543.63;4980480;28;20375;-71
2021/07/21 05:47:56;;;;;;;13.97;10.37;;;;;;;13.74;96.71;98551.94;4977105;28;20229;-70
2021/07/21 05:50:25;;;;;;;11.70;10.47;;;;;;;13.87;96.33;98554.06;4985125;28;20208;-70
2021/07/21 05:52:53;;;;;;;12.23;11.00;;;;;;;13.98;94.50;98547.50;4979895;28;20248;-72
2021/07/21 05:55:23;;;;;;;11.80;10.30;;;;;;;14.07;94.45;98555.50;4984130;28;20233;-69
2021/07/21 05:57:51;;;;;;;12.43;10.57;;;;;;;14.09;93.59;98542.81;4980774;28;20206;-71
2021/07/21 06:00:19;;;;;;;11.57;10.50;;;;;;;14.08;93.76;98544.63;4980820;28;20300;-71
2021/07/21 06:02:47;;;;;;;10.87;9.77;;;;;;;14.19;94.28;98543.44;4985480;28;20733;-70
2021/07/21 06:05:16;;;;;;;12.63;10.17;;;;;;;14.38;93.89;98542.16;4979910;28;20572;-72
2021/07/21 06:07:44;;;;;;;12.13;10.93;;;;;;;14.42;93.18;98551.47;4983704;28;20678;-71
2021/07/21 06:10:12;;;;;;;14.93;11.80;;;;;;;14.46;92.63;98544.78;4981090;28;20217;-70
2021/07/21 06:12:42;;;;;;;13.07;10.03;;;;;;;14.64;92.26;98549.03;4980208;28;20765;-72
2021/07/21 06:15:10;;;;;;;12.13;10.97;;;;;;;14.67;92.20;98551.34;4979953;28;20230;-74
2021/07/21 06:17:39;;;;;;;12.83;11.30;;;;;;;14.83;91.25;98555.78;4983318;28;20210;-72
2021/07/21 06:20:09;;;;;;;11.00;9.43;;;;;;;14.97;91.92;98556.00;4984117;28;20219;-72
2021/07/21 06:22:39;;;;;;;11.23;10.07;;;;;;;15.09;89.79;98556.41;4979130;28;20257;-73
2021/07/21 06:25:09;;;;;;;12.20;10.97;;;;;;;15.38;85.95;98560.16;4983614;28;20318;-72
2021/07/21 06:27:38;;;;;;;11.07;9.97;;;;;;;15.38;86.36;98565.50;4979584;28;20277;-73
2021/07/21 06:30:10;;;;;;;11.40;10.30;;;;;;;15.51;87.01;98560.38;4980618;28;20544;-70
2021/07/21 06:32:39;;;;;;;11.60;10.17;;;;;;;15.75;84.94;98556.59;4980339;28;20743;-74
2021/07/21 06:35:08;;;;;;;12.13;10.53;;;;;;;15.88;84.45;98561.34;4983095;28;20237;-70
2021/07/21 06:37:36;;;;;;;11.67;10.23;;;;;;;15.85;84.82;98566.19;4980517;28;20419;-74
2021/07/21 06:40:06;;;;;;;10.33;9.33;;;;;;;15.83;84.04;98571.72;4979896;28;20209;-72
2021/07/21 06:42:39;;;;;;;12.27;10.47;;;;;;;16.12;80.87;98577.28;4978491;28;20237;-72
2021/07/21 06:45:10;;;;;;;11.83;10.13;;;;;;;16.15;79.35;98576.91;4964395;28;20242;-72
2021/07/21 06:47:38;;;;;;;11.37;10.27;;;;;;;16.20;80.11;98578.03;4969628;28;20228;-72
2021/07/21 06:50:07;;;;;;;10.87;9.83;;;;;;;16.49;78.73;98580.81;4977905;28;20210;-71
2021/07/21 06:52:35;;;;;;;11.53;10.37;;;;;;;16.49;77.80;98584.34;4980516;28;20233;-71
2021/07/21 06:55:04;;;;;;;12.53;11.07;;;;;;;16.65;77.50;98579.78;4981513;28;20225;-70
2021/07/21 06:57:32;;;;;;;12.53;10.03;;;;;;;16.69;77.46;98578.38;4981898;28;20686;-71
2021/07/21 07:00:00;;;;;;;12.43;11.10;;;;;;;16.83;75.83;98581.19;4980053;28;20259;-70
2021/07/21 07:02:30;;;;;;;14.77;10.53;;;;;;;16.74;75.99;98586.66;4983094;28;20232;-71
2021/07/21 07:04:58;;;;;;;11.43;10.00;;;;;;;16.73;76.61;98582.31;4977880;28;20249;-72
2021/07/21 07:07:26;;;;;;;10.90;9.93;;;;;;;16.81;76.68;98584.06;4983080;28;20968;-73
2021/07/21 07:09:54;;;;;;;11.77;9.40;;;;;;;16.87;76.43;98601.22;4980654;28;20201;-71
2021/07/21 07:12:23;;;;;;;12.30;10.53;;;;;;;16.83;76.51;98597.25;4980874;28;20614;-73
2021/07/21 07:14:51;;;;;;;10.07;9.27;;;;;;;17.10;75.17;98593.03;4980575;28;20900;-72
2021/07/21 07:17:19;;;;;;;13.70;10.27;;;;;;;17.38;72.88;98586.06;4981779;28;20221;-71
2021/07/21 07:19:48;;;;;;;11.93;10.73;;;;;;;17.39;73.74;98593.88;4980910;28;20213;-71
2021/07/21 07:22:16;;;;;;;10.27;9.47;;;;;;;17.67;72.03;98592.25;4981352;28;20221;-72
2021/07/21 07:24:45;;;;;;;10.87;9.77;;;;;;;17.70;71.72;98598.03;4980455;28;20747;-71
2021/07/21 07:27:13;;;;;;;10.23;9.23;;;;;;;17.79;69.28;98596.03;4977442;28;20666;-69
2021/07/21 07:29:41;;;;;;;10.23;9.23;;;;;;;17.87;68.08;98600.44;4978065;28;21229;-71
2021/07/21 07:32:09;;;;;;;10.47;9.57;;;;;;;17.83;67.86;98602.66;4980308;28;20216;-72
2021/07/21 07:34:38;;;;;;;11.37;10.30;;;;;;;17.81;68.01;98591.31;4979980;28;20238;-70
2021/07/21 07:37:08;;;;;;;10.63;9.57;;;;;;;17.74;67.96;98593.13;4985348;28;20240;-69
2021/07/21 07:39:36;;;;;;;11.07;10.00;;;;;;;17.94;68.48;98591.38;4983463;28;20212;-73
2021/07/21 07:42:05;;;;;;;10.77;9.73;;;;;;;17.89;68.80;98588.47;4983333;28;20225;-72
2021/07/21 07:44:33;;;;;;;11.33;10.13;;;;;;;18.05;67.18;98583.88;4982580;28;20271;-74
2021/07/21 07:47:02;;;;;;;10.63;9.63;;;;;;;18.14;65.52;98581.81;4983505;28;20582;-71
2021/07/21 07:49:30;;;;;;;10.90;9.83;;;;;;;18.21;65.39;98583.53;4983723;28;20233;-70
2021/07/21 07:51:59;;;;;;;10.40;9.13;;;;;;;18.21;65.46;98580.84;4987465;28;20221;-71
2021/07/21 07:54:28;;;;;;;10.20;9.40;;;;;;;18.30;65.90;98581.50;4985696;28;20221;-71
2021/07/21 07:56:56;;;;;;;10.93;10.03;;;;;;;18.35;64.31;98575.53;4983935;28;20217;-71
2021/07/21 07:59:25;;;;;;;11.47;10.47;;;;;;;18.59;62.09;98582.25;4986501;28;20589;-71
2021/07/21 08:01:53;;;;;;;10.40;9.40;;;;;;;18.71;61.27;98585.13;4985918;28;20229;-71
2021/07/21 08:04:21;;;;;;;14.90;9.77;;;;;;;18.59;61.95;98570.66;4983408;28;20571;-70
2021/07/21 08:06:49;;;;;;;10.47;9.47;;;;;;;18.70;62.58;98586.19;4983363;28;20210;-70
2021/07/21 08:09:17;;;;;;;10.23;9.17;;;;;;;18.66;63.73;98575.03;4984600;28;20255;-71
2021/07/21 08:11:52;;;;;;;10.23;9.43;;;;;;;18.72;63.20;98584.13;4982241;28;20659;-72
2021/07/21 08:14:20;;;;;;;11.30;10.20;;;;;;;18.94;61.00;98579.44;4984589;28;20276;-70
2021/07/21 08:16:49;;;;;;;11.00;9.90;;;;;;;18.96;60.80;98579.22;4984967;28;20518;-71
2021/07/21 08:19:17;;;;;;;12.10;9.97;;;;;;;19.06;60.19;98581.53;4983981;28;21281;-72
2021/07/21 08:21:46;;;;;;;11.50;10.33;;;;;;;19.11;59.73;98586.28;4986188;28;20778;-71
2021/07/21 08:24:14;;;;;;;11.07;10.07;;;;;;;19.14;59.49;98577.84;4983025;28;20226;-71
2021/07/21 08:26:43;;;;;;;10.90;9.90;;;;;;;19.22;60.18;98577.63;4988651;28;20224;-70
2021/07/21 08:29:29;;;;;;;11.60;9.60;;;;;;;19.23;60.52;98579.28;4984419;28;20477;-71
2021/07/21 08:31:57;;;;;;;11.30;10.20;;;;;;;19.40;59.07;98578.88;4983480;28;20240;-70
2021/07/21 08:34:25;;;;;;;10.20;9.30;;;;;;;19.65;56.23;98569.13;4985982;28;20229;-71
2021/07/21 08:36:54;;;;;;;10.97;9.60;;;;;;;19.55;57.39;98575.97;4984116;28;20213;-71
2021/07/21 08:39:22;;;;;;;10.87;9.40;;;;;;;19.57;58.11;98572.03;4984248;28;20693;-70
2021/07/21 08:41:50;;;;;;;10.37;9.27;;;;;;;19.49;58.40;98577.59;4984490;28;20686;-71
2021/07/21 08:44:18;;;;;;;10.10;9.13;;;;;;;19.68;58.78;98567.88;4978047;28;20221;-71
2021/07/21 08:46:48;;;;;;;9.63;8.83;;;;;;;19.66;57.99;98567.25;4984638;28;20560;-71
2021/07/21 08:49:16;;;;;;;11.23;9.97;;;;;;;19.72;59.66;98570.97;4984171;28;20210;-71
2021/07/21 08:51:44;;;;;;;11.20;8.87;;;;;;;19.90;57.01;98568.50;4983840;28;20209;-72
2021/07/21 08:54:12;;;;;;;10.47;8.90;;;;;;;20.04;57.01;98571.97;4985840;28;20235;-72
2021/07/21 08:56:40;;;;;;;11.87;8.83;;;;;;;20.27;56.04;98576.03;4982216;28;20309;-70
2021/07/21 08:59:09;;;;;;;10.10;9.20;;;;;;;20.27;55.59;98576.03;4985267;28;20315;-72
2021/07/21 09:01:37;;;;;;;10.03;9.17;;;;;;;20.45;53.73;98575.34;4982234;28;20333;-69
2021/07/21 09:04:07;;;;;;;9.50;8.70;;;;;;;20.53;52.70;98577.78;4980442;28;20229;-70
2021/07/21 09:06:38;;;;;;;9.70;8.80;;;;;;;20.66;54.89;98573.41;4982498;28;20631;-73
2021/07/21 09:09:07;;;;;;;11.17;9.23;;;;;;;20.71;53.43;98578.13;4985508;28;20618;-70
2021/07/21 09:11:36;;;;;;;9.43;8.53;;;;;;;20.64;53.65;98581.66;4980828;28;20334;-71
2021/07/21 09:14:04;;;;;;;9.33;8.50;;;;;;;20.69;53.18;98581.03;4985851;28;20796;-73
2021/07/21 09:16:32;;;;;;;10.00;9.00;;;;;;;20.86;52.43;98578.69;4984480;28;20261;-71
2021/07/21 09:19:00;;;;;;;9.07;8.20;;;;;;;20.81;52.62;98571.25;4984797;28;20273;-70
2021/07/21 09:21:30;;;;;;;10.10;9.30;;;;;;;21.03;52.21;98568.22;4984570;28;20383;-70
2021/07/21 09:23:58;;;;;;;10.07;9.10;;;;;;;20.95;52.30;98572.00;4965532;28;20278;-71
2021/07/21 09:26:41;;;;;;;10.10;9.17;;;;;;;20.87;52.33;98574.13;4969900;28;20221;-71
2021/07/21 09:29:09;;;;;;;9.50;8.63;;;;;;;20.58;53.18;98576.31;4980762;28;20767;-70
2021/07/21 09:31:38;;;;;;;9.27;8.37;;;;;;;20.64;52.62;98565.50;4982459;28;20219;-71
2021/07/21 09:34:14;;;;;;;11.23;8.80;;;;;;;20.79;51.04;98572.50;4985162;28;20222;-72
2021/07/21 09:36:44;;;;;;;11.20;8.63;;;;;;;20.71;52.80;98572.72;4979887;28;20217;-72
2021/07/21 09:39:13;;;;;;;9.83;9.03;;;;;;;20.80;51.76;98569.59;4981231;28;20668;-72
2021/07/21 09:41:50;;;;;;;9.53;8.63;;;;;;;21.05;50.93;98565.28;4984182;28;20268;-71
2021/07/21 09:44:18;;;;;;;8.83;8.13;;;;;;;21.30;49.33;98567.19;4981449;28;20243;-71
2021/07/21 09:46:46;;;;;;;9.60;8.73;;;;;;;21.06;50.27;98567.78;4981849;28;20593;-71
2021/07/21 09:49:19;;;;;;;9.27;8.37;;;;;;;21.11;50.58;98564.41;4979101;28;20292;-71
2021/07/21 09:51:49;;;;;;;9.37;8.47;;;;;;;21.37;50.72;98562.56;4982104;28;20680;-72
2021/07/21 09:54:18;;;;;;;9.43;8.43;;;;;;;21.45;50.30;98561.47;4983915;28;20236;-70
2021/07/21 09:56:49;;;;;;;9.67;8.73;;;;;;;21.67;50.09;98560.03;4980341;28;20225;-71
2021/07/21 09:59:24;;;;;;;12.17;7.57;;;;;;;21.59;47.74;98564.84;4984985;28;20209;-72
2021/07/21 10:01:53;;;;;;;9.10;8.30;;;;;;;21.59;48.04;98557.59;4982916;28;20205;-72
2021/07/21 10:04:33;;;;;;;8.73;8.03;;;;;;;21.59;48.66;98564.84;4981199;28;20237;-72
2021/07/21 10:07:14;;;;;;;8.70;7.87;;;;;;;21.83;47.71;98565.91;4980459;28;20205;-71
2021/07/21 10:09:43;;;;;;;11.73;8.70;;;;;;;22.08;47.54;98567.69;4980092;28;20668;-71
2021/07/21 10:12:15;;;;;;;8.77;7.97;;;;;;;21.96;47.11;98570.31;4983255;28;20213;-70
2021/07/21 10:14:55;;;;;;;10.80;8.80;;;;;;;21.84;46.92;98567.56;4983259;28;20807;-70
2021/07/21 10:17:23;;;;;;;9.03;8.23;;;;;;;21.83;48.54;98565.91;4985389;28;20609;-72
2021/07/21 10:19:51;;;;;;;10.07;9.07;;;;;;;21.74;46.47;98572.63;4983655;28;20308;-69
2021/07/21 10:22:21;;;;;;;9.37;8.37;;;;;;;21.76;47.29;98571.34;4977432;28;20693;-70
2021/07/21 10:24:49;;;;;;;9.40;8.50;;;;;;;21.62;47.32;98565.22;4980411;28;20244;-70
2021/07/21 10:27:17;;;;;;;9.30;8.40;;;;;;;21.86;46.30;98568.16;4982674;28;21243;-70
2021/07/21 10:29:46;;;;;;;10.20;9.13;;;;;;;22.18;45.82;98557.22;4968624;28;20213;-71
2021/07/21 10:32:15;;;;;;;9.00;8.10;;;;;;;22.19;46.85;98556.16;4983473;28;20208;-70
2021/07/21 10:34:46;;;;;;;8.77;7.87;;;;;;;22.16;48.87;98561.19;4983132;28;20240;-73
2021/07/21 10:37:14;;;;;;;10.93;8.53;;;;;;;22.47;47.78;98557.50;4981775;28;20214;-71
2021/07/21 10:39:44;;;;;;;8.83;7.83;;;;;;;22.59;46.17;98557.53;4980043;28;20380;-73
2021/07/21 10:42:16;;;;;;;8.73;7.93;;;;;;;23.01;45.58;98564.03;4980075;28;20814;-71
2021/07/21 10:44:55;;;;;;;9.30;8.40;;;;;;;23.12;43.27;98555.94;4980205;28;20316;-71
2021/07/21 10:47:24;;;;;;;9.33;8.53;;;;;;;23.20;45.36;98549.38;4980481;28;20609;-70
2021/07/21 10:49:55;;;;;;;7.83;7.23;;;;;;;23.94;40.32;98547.28;4982385;28;20228;-71
2021/07/21 10:52:42;;;;;;;8.70;8.00;;;;;;;23.42;41.22;98548.81;4984629;28;20205;-71
2021/07/21 10:55:25;;;;;;;8.70;7.80;;;;;;;24.40;39.65;98548.25;4980816;28;20229;-71
2021/07/21 11:00:57;;;;;;;8.70;7.83;;;;;;;24.58;39.99;98540.97;4978596;28;20201;-73
2021/07/21 11:03:28;;;;;;;8.37;7.57;;;;;;;26.44;35.51;98532.13;4977205;28;20455;-71
2021/07/21 11:06:01;;;;;;;8.03;7.43;;;;;;;26.34;35.04;98538.25;4982376;28;20255;-71
2021/07/21 11:08:30;;;;;;;7.83;7.23;;;;;;;26.00;36.38;98533.78;4982366;28;20304;-70
2021/07/21 11:11:10;;;;;;;8.27;7.47;;;;;;;25.56;36.53;98531.81;4983915;28;20301;-73
2021/07/21 11:13:40;;;;;;;8.20;7.37;;;;;;;25.20;37.55;98525.00;4986644;28;20234;-72
2021/07/21 11:16:39;;;;;;;8.20;7.47;;;;;;;24.82;38.48;98527.34;4985398;28;20379;-72
2021/07/21 11:19:30;;;;;;;8.00;7.20;;;;;;;24.96;38.16;98528.69;4984251;28;20223;-71
2021/07/21 11:21:59;;;;;;;7.83;7.23;;;;;;;25.87;36.98;98517.84;4986646;28;20213;-72
2021/07/21 11:24:29;;;;;;;7.60;7.00;;;;;;;25.83;36.15;98516.69;4986296;28;20247;-72
2021/07/21 11:26:59;;;;;;;8.00;7.40;;;;;;;25.41;37.00;98518.81;4985884;28;20212;-72
2021/07/21 11:29:46;;;;;;;8.40;6.60;;;;;;;25.52;36.38;98519.00;4981888;28;20654;-71
2021/07/21 11:32:29;;;;;;;8.70;7.93;;;;;;;25.18;37.65;98519.81;4984159;28;20288;-70
2021/07/21 11:34:59;;;;;;;8.23;7.40;;;;;;;25.06;37.50;98516.38;4968568;28;20710;-72
2021/07/21 11:37:32;;;;;;;7.57;6.23;;;;;;;25.47;36.43;98518.91;4976275;28;20209;-71
2021/07/21 11:40:01;;;;;;;7.33;6.73;;;;;;;25.63;36.16;98517.25;4985981;28;20749;-72